CST,Max TemperatureF,Mean TemperatureF,Min TemperatureF,Max Dew PointF,MeanDew PointF,Min DewpointF,Max Humidity, Mean Humidity, Min Humidity, Max Sea Level PressureIn, Mean Sea Level PressureIn, Min Sea Level PressureIn, Max VisibilityMiles, Mean VisibilityMiles, Min VisibilityMiles, Max Wind SpeedMPH, Mean Wind SpeedMPH, Max Gust SpeedMPH,PrecipitationIn, CloudCover, Events, WindDirDegrees
2013-11-1,66,56,45,52,47,41,93,69,44,29.86,29.74,29.65,10,10,10,18,9,24,0.00,2,,248
2013-11-2,56,46,36,45,41,35,92,79,66,30.20,30.00,29.84,10,9,4,21,6,26,0.02,4,Rain,298
2013-11-3,56,45,33,40,35,31,96,69,41,30.35,30.27,30.19,10,8,2,12,2,14,0.00,0,,100
2013-11-4,61,50,38,46,40,35,85,66,46,30.34,30.29,30.26,10,10,10,18,5,23,0.01,2,Rain,140
2013-11-5,65,58,50,47,44,41,86,67,48,30.37,30.27,30.16,10,10,10,14,5,18,0.00,3,,149
2013-11-6,61,52,43,56,48,38,93,73,53,30.22,30.09,30.03,10,7,2,20,10,28,0.33,7,Rain,235
2013-11-7,52,44,35,38,31,25,92,64,35,30.39,30.32,30.23,10,10,6,13,4,17,0.00,1,,295
2013-11-8,55,42,29,35,28,23,92,61,29,30.43,30.33,30.22,10,9,4,12,3,17,0.00,0,,159
2013-11-9,64,53,41,43,36,27,82,61,39,30.21,30.18,30.12,10,10,10,25,10,35,0.00,0,,218
2013-11-10,58,46,33,42,34,30,89,63,36,30.41,30.35,30.23,10,10,7,13,4,15,0.00,0,,315
2013-11-11,63,48,32,43,34,29,89,61,33,30.35,30.26,30.14,10,10,8,22,7,30,0.01,5,Rain,302
2013-11-12,41,34,27,34,25,20,82,65,48,30.71,30.60,30.38,10,10,8,18,10,26,T,4,Rain-Snow,354
2013-11-13,42,32,21,22,20,18,84,62,39,30.73,30.60,30.43,10,10,10,9,4,14,0.00,0,,205
2013-11-14,56,43,30,24,20,17,69,46,22,30.41,30.28,30.16,10,10,10,18,9,24,0.00,0,,190
2013-11-15,52,45,37,45,34,21,86,63,40,30.18,30.12,30.07,10,10,6,10,5,17,0.01,5,Rain,159
2013-11-16,66,58,49,61,54,47,93,83,72,30.06,29.95,29.80,10,8,2,22,10,28,0.05,7,Rain-Thunderstorm,165
2013-11-17,70,60,49,65,57,36,93,65,36,29.93,29.73,29.53,10,8,2,26,11,37,1.29,6,Rain-Thunderstorm,193
2013-11-18,58,46,34,40,34,28,92,64,35,30.31,30.15,29.96,10,10,10,20,6,28,0.00,0,,300
2013-11-19,48,40,31,30,28,26,78,60,42,30.37,30.31,30.27,10,10,8,10,5,13,0.00,0,,37
2013-11-20,56,42,27,34,31,25,85,63,41,30.28,30.21,30.16,10,10,10,13,5,17,0.00,0,,103
2013-11-21,62,54,45,52,46,33,93,73,52,30.27,30.21,30.17,10,8,2,12,5,16,0.27,5,Rain,159
2013-11-22,55,47,39,54,45,30,100,87,73,30.45,30.31,30.19,10,6,1,16,9,24,0.03,8,Rain,334
2013-11-23,42,32,22,30,20,10,82,65,48,30.69,30.56,30.45,10,10,9,22,11,29,0.00,2,,340
2013-11-24,33,26,18,16,12,9,68,54,39,30.77,30.66,30.53,10,10,10,9,4,15,0.00,0,,12
2013-11-25,39,33,27,31,21,14,89,67,44,30.49,30.33,30.21,10,10,9,14,5,17,0.02,7,Rain-Snow,174
2013-11-26,39,34,29,32,28,16,89,73,56,30.22,30.11,30.01,10,9,5,21,7,29,T,8,,351
2013-11-27,30,24,17,15,10,7,73,56,39,30.40,30.28,30.12,10,10,10,22,9,29,0.00,0,,314
2013-11-28,42,30,17,20,16,11,80,58,36,30.51,30.42,30.33,10,10,10,21,5,25,0.00,0,,200
2013-11-29,47,34,21,24,22,19,88,63,38,30.64,30.55,30.48,10,10,10,8,3,10,0.00,0,,77
2013-11-30,56,41,25,28,24,20,81,54,27,30.46,30.32,30.19,10,10,9,17,6,23,0.00,0,,200